Navigator Ceto — D5HE5 — position and weather

sailwx.info

Track history (hours):
 
Tides and Currents Weather Stations Pressure Air Temp Water Temp Dewpoint Dewpoint Depression Visibility Wind Speed Wind Dir Waves Ship Positions

Navigator Ceto

Last reported at 2018-Jun-25 01:12 UTC. Time now 2018-Jun-25 03:50 UTC.
Position N 51°17' E 004°14'.

Length 160 m; draft 6.8 m.

Type: Tanker. MMSI: 636016660.

Date/timePositionNaut miles runAvg speedWind from/ knotsBaromVisibWave heightAir tempDewpointWater temp
2018-Jun-25 01:12N 51°17' E 004°14'0 0.0
2018-Jun-25 00:57N 51°17' E 004°14'0 0.0
2018-Jun-24 23:03N 51°17' E 004°14'0 0.0
2018-Jun-24 21:03N 51°17' E 004°14'0 0.0
2018-Jun-24 20:54N 51°17' E 004°14'0 0.0
2018-Jun-24 20:27N 51°17' E 004°14'0 0.2
2018-Jun-24 20:00N 51°17' E 004°14'1 1.4
2018-Jun-24 19:30N 51°17' E 004°15'0 0.0
2018-Jun-24 19:00N 51°17' E 004°15'1 2.4
2018-Jun-24 18:30N 51°18' E 004°16'3 6.4
2018-Jun-24 18:00N 51°21' E 004°15'4 7.8
2018-Jun-24 17:30N 51°23' E 004°10'5 9.6
2018-Jun-24 17:00N 51°23' E 004°02'3 5.8
2018-Jun-24 16:30N 51°24' E 003°58'510.2
2018-Jun-24 16:00N 51°21' E 003°52'510.6
2018-Jun-24 15:30N 51°23' E 003°44'5 9.8
2018-Jun-24 15:00N 51°26' E 003°38'4 8.1
2018-Jun-24 14:30N 51°25' E 003°32'4 8.7
2018-Jun-24 14:00N 51°25' E 003°25'4 8.4
2018-Jun-24 13:30N 51°24' E 003°19'612.0
2018-Jun-24 13:00N 51°24' E 003°09'612.3
2018-Jun-24 12:30N 51°23' E 002°59'612.6
2018-Jun-24 12:00N 51°22' E 002°49'510.1
2018-Jun-24 11:30N 51°24' E 002°42'3 7.0
2018-Jun-24 11:00N 51°27' E 002°43'1 2.6
2018-Jun-24 10:30N 51°27' E 002°41'0 0.0
2018-Jun-24 09:59N 51°27' E 002°41'0 0.1
2018-Jun-24 09:20N 51°27' E 002°41'0 0.2
2018-Jun-24 08:59N 51°27' E 002°41'0 0.2
2018-Jun-24 08:29N 51°27' E 002°41'0 0.0
2018-Jun-24 07:56N 51°27' E 002°41'0 0.0
2018-Jun-24 07:29N 51°27' E 002°41'0 0.0
2018-Jun-24 06:59N 51°27' E 002°41'0 0.0
2018-Jun-24 06:26N 51°27' E 002°41'0 0.0
2018-Jun-24 05:50N 51°27' E 002°41'0 0.0
2018-Jun-24 05:23N 51°27' E 002°41'0 0.0
2018-Jun-24 04:56N 51°27' E 002°41'0 0.0
2018-Jun-24 04:29N 51°27' E 002°41'0 0.0
2018-Jun-24 03:59N 51°27' E 002°41'0 0.0
2018-Jun-24 03:29N 51°27' E 002°41'0 0.0
2018-Jun-24 02:53N 51°27' E 002°41'0 0.0
2018-Jun-24 02:29N 51°27' E 002°41'0 0.1
2018-Jun-24 01:59N 51°27' E 002°41'0 0.2
2018-Jun-24 01:29N 51°27' E 002°41'0 0.0
2018-Jun-24 00:59N 51°27' E 002°41'0 0.0
2018-Jun-24 00:29N 51°27' E 002°41'0 0.0
2018-Jun-23 23:59N 51°27' E 002°41'0 0.0
2018-Jun-23 23:29N 51°27' E 002°41'0 0.0
2018-Jun-23 22:56N 51°27' E 002°41'0 0.0
2018-Jun-23 22:29N 51°27' E 002°41'0 0.0
2018-Jun-23 21:59N 51°27' E 002°41'0 0.0
2018-Jun-23 21:29N 51°27' E 002°41'0 0.0
2018-Jun-23 20:59N 51°27' E 002°41'0 0.1
2018-Jun-23 20:29N 51°27' E 002°41'0 0.2
2018-Jun-23 19:50N 51°27' E 002°41'0 0.1
2018-Jun-23 19:29N 51°27' E 002°41'0 0.0
2018-Jun-23 18:59N 51°27' E 002°41'0 0.1
2018-Jun-23 18:29N 51°27' E 002°41'0 0.0
2018-Jun-23 17:59N 51°27' E 002°41'0 0.0
2018-Jun-23 17:29N 51°27' E 002°41'0 0.0
2018-Jun-23 16:59N 51°27' E 002°41'0 0.0
2018-Jun-23 16:26N 51°27' E 002°41'0 0.1
2018-Jun-23 15:59N 51°27' E 002°41'0 0.0
2018-Jun-23 15:29N 51°27' E 002°41'0 0.1
2018-Jun-23 14:56N 51°27' E 002°41'0 0.1
2018-Jun-23 14:29N 51°27' E 002°41'0 0.1
2018-Jun-23 13:59N 51°27' E 002°41'0 0.0
2018-Jun-23 13:29N 51°27' E 002°41'0 0.1
2018-Jun-23 12:56N 51°27' E 002°41'0 0.0
2018-Jun-23 12:29N 51°27' E 002°41'0 0.0
2018-Jun-23 11:53N 51°27' E 002°41'0 0.0
2018-Jun-23 11:29N 51°27' E 002°41'0 0.0
2018-Jun-23 10:59N 51°27' E 002°41'0 0.0
2018-Jun-23 10:29N 51°27' E 002°41'0 0.0
2018-Jun-23 09:56N 51°27' E 002°41'0 0.0
2018-Jun-23 09:29N 51°27' E 002°41'0 0.0
2018-Jun-23 08:59N 51°27' E 002°41'0 0.0
2018-Jun-23 08:26N 51°27' E 002°41'0 0.1
2018-Jun-23 07:59N 51°27' E 002°41'0 0.1
2018-Jun-23 07:29N 51°27' E 002°41'0 0.1
2018-Jun-23 06:59N 51°27' E 002°41'0 0.1
2018-Jun-23 06:29N 51°27' E 002°41'0 0.0
2018-Jun-23 05:56N 51°27' E 002°41'0 0.0
2018-Jun-23 05:29N 51°27' E 002°41'0 0.0
2018-Jun-23 04:56N 51°27' E 002°41'0 0.0
2018-Jun-23 04:29N 51°27' E 002°41'0 0.0
2018-Jun-23 03:59N 51°27' E 002°41'0 0.0
2018-Jun-23 03:29N 51°27' E 002°41'0 0.0
2018-Jun-23 02:59N 51°27' E 002°41'0 0.0
2018-Jun-23 02:26N 51°27' E 002°41'0 0.1
2018-Jun-23 01:50N 51°27' E 002°41'0 0.0
2018-Jun-23 01:26N 51°27' E 002°41'0 0.0
2018-Jun-23 00:32N 51°27' E 002°41'0 0.2
2018-Jun-23 00:29N 51°27' E 002°41'0 0.1
2018-Jun-22 23:53N 51°27' E 002°41'0 0.1
2018-Jun-22 23:17N 51°27' E 002°41'0 0.0
2018-Jun-22 22:59N 51°27' E 002°41'0 0.0
2018-Jun-22 22:20N 51°27' E 002°41'0 0.0
2018-Jun-22 21:53N 51°27' E 002°41'0 0.0
2018-Jun-22 21:29N 51°27' E 002°41'0 0.1
2018-Jun-22 20:59N 51°27' E 002°41'0 0.1
2018-Jun-22 20:20N 51°27' E 002°41'0 0.1
2018-Jun-22 19:38N 51°27' E 002°41'0 0.1
2018-Jun-22 19:14N 51°27' E 002°41'0 0.1
2018-Jun-22 18:56N 51°27' E 002°41'0 0.0
2018-Jun-22 18:17N 51°27' E 002°41'0 0.1
2018-Jun-22 17:53N 51°27' E 002°41'0 0.0
2018-Jun-22 16:50N 51°27' E 002°41'0 0.0
2018-Jun-22 16:20N 51°27' E 002°41'0 0.0
2018-Jun-22 15:44N 51°27' E 002°41'0 0.1
2018-Jun-22 15:29N 51°27' E 002°41'0 0.0
2018-Jun-22 14:56N 51°27' E 002°41'0 0.0
2018-Jun-22 14:17N 51°27' E 002°41'0 0.1
2018-Jun-22 13:56N 51°27' E 002°41'0 0.0
2018-Jun-22 13:29N 51°27' E 002°41'0 0.0
2018-Jun-22 12:59N 51°27' E 002°41'0 0.0
2018-Jun-22 12:29N 51°27' E 002°41'0 0.0
2018-Jun-22 11:53N 51°27' E 002°41'0 0.0
2018-Jun-22 11:20N 51°27' E 002°41'0 0.1
2018-Jun-22 10:59N 51°27' E 002°41'0 0.0
2018-Jun-22 10:29N 51°27' E 002°41'0 0.1
2018-Jun-22 09:59N 51°27' E 002°41'0 0.0
2018-Jun-22 09:26N 51°27' E 002°41'0 0.0
2018-Jun-22 08:56N 51°27' E 002°41'0 0.0
2018-Jun-22 08:26N 51°27' E 002°41'0 0.0
2018-Jun-22 07:59N 51°27' E 002°41'0 0.0
2018-Jun-22 07:26N 51°27' E 002°41'0 0.0
2018-Jun-22 06:59N 51°27' E 002°41'0 0.0
2018-Jun-22 06:26N 51°27' E 002°41'0 0.0
2018-Jun-22 05:50N 51°27' E 002°41'0 0.0
2018-Jun-22 05:29N 51°27' E 002°41'0 0.1
2018-Jun-22 04:56N 51°27' E 002°41'0 0.1
2018-Jun-22 04:29N 51°27' E 002°41'0 0.0
2018-Jun-22 03:56N 51°27' E 002°41'0 0.0
2018-Jun-22 03:23N 51°27' E 002°41'0 0.0
2018-Jun-22 02:59N 51°27' E 002°41'0 0.1
2018-Jun-22 02:29N 51°27' E 002°41'0 0.1
2018-Jun-22 01:53N 51°27' E 002°41'0 0.1
2018-Jun-22 01:29N 51°27' E 002°41'0 0.0
2018-Jun-22 00:59N 51°27' E 002°41'0 0.0
2018-Jun-22 00:23N 51°27' E 002°41'0 0.0
2018-Jun-21 23:59N 51°27' E 002°41'0 0.0
2018-Jun-21 23:29N 51°27' E 002°41'0 0.0
2018-Jun-21 22:53N 51°27' E 002°41'0 0.1
2018-Jun-21 22:26N 51°27' E 002°41'0 0.1
2018-Jun-21 21:53N 51°27' E 002°41'0 0.1
2018-Jun-21 21:29N 51°27' E 002°41'0 0.1
2018-Jun-21 20:59N 51°27' E 002°41'0 0.1
2018-Jun-21 20:23N 51°27' E 002°41'0 0.0
2018-Jun-21 19:56N 51°27' E 002°41'0 0.0
2018-Jun-21 19:29N 51°27' E 002°41'0 0.0
2018-Jun-21 18:59N 51°27' E 002°41'0 0.1
2018-Jun-21 18:29N 51°27' E 002°41'0 0.1
2018-Jun-21 17:59N 51°27' E 002°41'0 0.0
2018-Jun-21 17:29N 51°27' E 002°41'0 0.0
2018-Jun-21 16:53N 51°27' E 002°41'0 0.0
2018-Jun-21 16:29N 51°27' E 002°41'0 0.0
2018-Jun-21 15:53N 51°27' E 002°41'0 0.0
2018-Jun-21 15:29N 51°27' E 002°41'0 0.0
2018-Jun-21 14:59N 51°27' E 002°41'0 0.0
2018-Jun-21 14:29N 51°27' E 002°41'0 0.0
2018-Jun-21 13:59N 51°27' E 002°41'0 0.0
2018-Jun-21 13:29N 51°27' E 002°41'0 0.0
2018-Jun-21 12:53N 51°27' E 002°41'0 0.0
2018-Jun-21 12:29N 51°27' E 002°41'0 0.0
2018-Jun-21 11:59N 51°27' E 002°41'0 0.1
2018-Jun-21 11:29N 51°27' E 002°41'0 0.1
2018-Jun-21 10:56N 51°27' E 002°41'0 0.1
2018-Jun-21 10:29N 51°27' E 002°41'0 0.1
2018-Jun-21 09:56N 51°27' E 002°41'0 0.1
2018-Jun-21 09:29N 51°27' E 002°41'0 0.0
2018-Jun-21 08:47N 51°27' E 002°41'0 0.1
2018-Jun-21 08:29N 51°27' E 002°41'0 0.0
2018-Jun-21 07:59N 51°27' E 002°41'0 0.0
2018-Jun-21 07:29N 51°27' E 002°41'0 0.0
2018-Jun-21 06:59N 51°27' E 002°41'0 0.0
2018-Jun-21 06:23N 51°27' E 002°41'0 0.0
2018-Jun-21 05:59N 51°27' E 002°41'0 0.0
2018-Jun-21 05:26N 51°27' E 002°41'0 0.1
2018-Jun-21 04:59N 51°27' E 002°41'0 0.0
2018-Jun-21 04:29N 51°27' E 002°41'0 0.0
2018-Jun-21 03:47N 51°27' E 002°41'0 0.0
2018-Jun-21 03:29N 51°27' E 002°41'0 0.1
2018-Jun-21 02:59N 51°27' E 002°41'0 0.0
2018-Jun-21 02:29N 51°27' E 002°41'0 0.0
2018-Jun-21 01:59N 51°27' E 002°41'0 0.0
2018-Jun-21 01:26N 51°27' E 002°41'0 0.1
2018-Jun-21 00:59N 51°27' E 002°41'0 0.2
2018-Jun-21 00:29N 51°27' E 002°41'0 0.1
2018-Jun-20 23:53N 51°27' E 002°41'0 0.1
2018-Jun-20 23:30N 51°27' E 002°41'2 4.3
2018-Jun-20 22:58N 51°27' E 002°44'3 5.5
2018-Jun-20 22:27N 51°24' E 002°45'612.2
2018-Jun-20 21:58N 51°25' E 002°54'714.4
2018-Jun-20 21:30N 51°24' E 003°05'714.7
2018-Jun-20 21:00N 51°25' E 003°17'714.8
2018-Jun-20 20:30N 51°25' E 003°29'510.3
2018-Jun-20 20:00N 51°26' E 003°37'510.0
2018-Jun-20 19:30N 51°23' E 003°43'612.6
2018-Jun-20 19:00N 51°21' E 003°53'510.8
2018-Jun-20 18:30N 51°25' E 003°58'3 6.9
2018-Jun-20 18:00N 51°23' E 004°02'510.8
2018-Jun-20 17:31N 51°24' E 004°11'510.3
2018-Jun-20 17:00N 51°20' E 004°16'4 8.1
2018-Jun-20 16:30N 51°16' E 004°18'1 2.1
2018-Jun-20 16:01N 51°16' E 004°17'0 0.0
2018-Jun-20 15:30N 51°16' E 004°17'1 1.6
2018-Jun-20 15:01N 51°16' E 004°15'0 0.6
2018-Jun-20 14:28N 51°16' E 004°15'0 0.0
2018-Jun-20 13:55N 51°16' E 004°15'0 0.0
2018-Jun-20 13:16N 51°16' E 004°15'0 0.0
2018-Jun-20 12:58N 51°16' E 004°15'0 0.0
2018-Jun-20 12:25N 51°16' E 004°15'0 0.0
2018-Jun-20 11:55N 51°16' E 004°15'0 0.0
2018-Jun-20 11:28N 51°16' E 004°15'0 0.0
2018-Jun-20 10:55N 51°16' E 004°15'0 0.0
2018-Jun-20 10:25N 51°16' E 004°15'0 0.0
2018-Jun-20 09:58N 51°16' E 004°15'0 0.0
2018-Jun-20 09:25N 51°16' E 004°15'0 0.0
2018-Jun-20 08:52N 51°16' E 004°15'0 0.0
2018-Jun-20 08:28N 51°16' E 004°15'0 0.0
2018-Jun-20 07:58N 51°16' E 004°15'0 0.0
2018-Jun-20 07:28N 51°16' E 004°15'0 0.0
2018-Jun-20 06:55N 51°16' E 004°15'0 0.0
2018-Jun-20 06:16N 51°16' E 004°15'0 0.0
2018-Jun-20 05:52N 51°16' E 004°15'0 0.0
2018-Jun-20 05:25N 51°16' E 004°15'0 0.0
2018-Jun-20 04:46N 51°16' E 004°15'0 0.0
2018-Jun-20 04:22N 51°16' E 004°15'0 0.0
2018-Jun-20 03:55N 51°16' E 004°15'0 0.0
2018-Jun-20 03:28N 51°16' E 004°15'0 0.0
2018-Jun-20 02:58N 51°16' E 004°15'0 0.0
2018-Jun-20 02:25N 51°16' E 004°15'0 0.0
2018-Jun-20 01:52N 51°16' E 004°15'0 0.0
2018-Jun-20 01:16N 51°16' E 004°15'0 0.0
2018-Jun-20 00:58N 51°16' E 004°15'0 0.0
2018-Jun-20 00:10N 51°16' E 004°15'0 0.0
2018-Jun-19 23:58N 51°16' E 004°15'0 0.0
2018-Jun-19 23:07N 51°16' E 004°15'0 0.0
2018-Jun-19 22:49N 51°16' E 004°15'0 0.0
2018-Jun-19 22:25N 51°16' E 004°15'0 0.0
2018-Jun-19 21:58N 51°16' E 004°15'0 0.0
2018-Jun-19 21:19N 51°16' E 004°15'0 0.0
2018-Jun-19 20:58N 51°16' E 004°15'0 0.0
2018-Jun-19 20:19N 51°16' E 004°15'0 0.0
2018-Jun-19 19:52N 51°16' E 004°15'0 0.0
2018-Jun-19 19:28N 51°16' E 004°15'0 0.0
2018-Jun-19 18:58N 51°16' E 004°15'0 0.0
2018-Jun-19 18:28N 51°16' E 004°15'0 0.0
2018-Jun-19 17:55N 51°16' E 004°15'0 0.0
2018-Jun-19 17:16N 51°16' E 004°15'0 0.0
2018-Jun-19 16:49N 51°16' E 004°15'0 0.0
2018-Jun-19 16:25N 51°16' E 004°15'0 0.0
2018-Jun-19 15:49N 51°16' E 004°15'0 0.0
2018-Jun-19 15:28N 51°16' E 004°15'0 0.0
2018-Jun-19 14:49N 51°16' E 004°15'0 0.0
2018-Jun-19 14:28N 51°16' E 004°15'0 0.0
2018-Jun-19 13:55N 51°16' E 004°15'0 0.0
2018-Jun-19 13:25N 51°16' E 004°15'0 0.0
2018-Jun-19 12:55N 51°16' E 004°15'0 0.0
2018-Jun-19 12:22N 51°16' E 004°15'0 0.0
2018-Jun-19 11:58N 51°16' E 004°15'0 0.0
2018-Jun-19 11:22N 51°16' E 004°15'0 0.0
2018-Jun-19 10:49N 51°16' E 004°15'0 0.0
2018-Jun-19 10:28N 51°16' E 004°15'0 0.0
2018-Jun-19 09:55N 51°16' E 004°15'0 0.0
2018-Jun-19 09:19N 51°16' E 004°15'0 0.0
2018-Jun-19 08:58N 51°16' E 004°15'0 0.0
2018-Jun-19 08:25N 51°16' E 004°15'0 0.0
2018-Jun-19 07:52N 51°16' E 004°15'0 0.0
2018-Jun-19 07:28N 51°16' E 004°15'0 0.0
2018-Jun-19 06:58N 51°16' E 004°15'0 0.0
2018-Jun-19 06:19N 51°16' E 004°15'0 0.0
2018-Jun-19 05:52N 51°16' E 004°15'0 0.0
2018-Jun-19 05:25N 51°16' E 004°15'0 0.0
2018-Jun-19 04:58N 51°16' E 004°15'0 0.0
2018-Jun-19 04:28N 51°16' E 004°15'0 0.0
2018-Jun-19 03:52N 51°16' E 004°15'0 0.0
2018-Jun-19 03:28N 51°16' E 004°15'0 0.0
2018-Jun-19 02:55N 51°16' E 004°15'0 0.0
2018-Jun-19 02:25N 51°16' E 004°15'0 0.0
2018-Jun-19 01:58N 51°16' E 004°15'0 0.0
2018-Jun-19 01:28N 51°16' E 004°15'0 0.0
2018-Jun-19 00:49N 51°16' E 004°15'0 0.0
2018-Jun-19 00:28N 51°16' E 004°15'0 0.0
2018-Jun-18 23:58N 51°16' E 004°15'0 0.0
2018-Jun-18 23:28N 51°16' E 004°15'0 0.0
2018-Jun-18 22:52N 51°16' E 004°15'0 0.0
2018-Jun-18 22:28N 51°16' E 004°15'0 0.0
2018-Jun-18 21:58N 51°16' E 004°15'0 0.0
2018-Jun-18 21:22N 51°16' E 004°15'0 0.0
2018-Jun-18 20:58N 51°16' E 004°15'0 0.0
2018-Jun-18 20:28N 51°16' E 004°15'0 0.0
2018-Jun-18 19:58N 51°16' E 004°15'0 0.0
2018-Jun-18 19:28N 51°16' E 004°15'0 0.0
2018-Jun-18 18:52N 51°16' E 004°15'0 0.0
2018-Jun-18 18:04N 51°16' E 004°15'0 0.0
2018-Jun-18 17:58N 51°16' E 004°15'0 0.0
2018-Jun-18 17:28N 51°16' E 004°15'0 0.0
2018-Jun-18 16:55N 51°16' E 004°15'0 0.0
2018-Jun-18 16:25N 51°16' E 004°15'0 0.0
2018-Jun-18 15:52N 51°16' E 004°15'0 0.0
2018-Jun-18 15:13N 51°16' E 004°15'0 0.0
2018-Jun-18 14:58N 51°16' E 004°15'0 0.0
2018-Jun-18 14:29N 51°16' E 004°15'0 0.6
2018-Jun-18 14:00N 51°16' E 004°15'1 1.7
2018-Jun-18 13:30N 51°17' E 004°15'0 0.0
2018-Jun-18 13:00N 51°17' E 004°15'0 0.5
2018-Jun-18 12:30N 51°17' E 004°15'2 4.2
2018-Jun-18 12:00N 51°19' E 004°16'5 9.6
2018-Jun-18 11:30N 51°23' E 004°13'510.9
2018-Jun-18 11:00N 51°22' E 004°04'5 9.8
2018-Jun-18 10:30N 51°26' E 003°59'611.7
2018-Jun-18 10:00N 51°21' E 003°53'611.4
2018-Jun-18 09:30N 51°22' E 003°44'510.4
2018-Jun-18 09:00N 51°26' E 003°39'4 7.0
2018-Jun-18 08:30N 51°25' E 003°33'510.5
2018-Jun-18 08:00N 51°24' E 003°25'612.7
2018-Jun-18 07:30N 51°24' E 003°15'714.0
2018-Jun-18 07:00N 51°24' E 003°03'714.8
2018-Jun-18 06:30N 51°22' E 002°52'612.7
2018-Jun-18 06:00N 51°22' E 002°42'610.6
2018-Jun-18 05:28N 51°22' E 002°33'611.4
2018-Jun-18 04:59N 51°21' E 002°24'613.7
2018-Jun-18 04:31N 51°17' E 002°16'713.6
2018-Jun-18 04:00N 51°14' E 002°06'611.7
2018-Jun-18 03:30N 51°11' E 001°58'611.5
2018-Jun-18 03:00N 51°08' E 001°50'611.8
2018-Jun-18 02:30N 51°05' E 001°43'713.8
2018-Jun-18 02:00N 50°60' E 001°35'714.6
2018-Jun-18 01:30N 50°53' E 001°29'814.9
2018-Jun-18 00:57N 50°45' E 001°25'6114.3
2018-Jun-17 20:43N 50°20' W 000°01'614.8
2018-Jun-17 20:21N 50°18' W 000°09'514.1
2018-Jun-17 20:01N 50°17' W 000°17'713.6
2018-Jun-17 19:29N 50°14' W 000°27'9412.3
2018-Jun-17 11:52N 49°50' W 002°48'2414.2
2018-Jun-17 10:09N 49°47' W 003°26'1414.3
2018-Jun-17 09:11N 49°46' W 003°47'3114.2
2018-Jun-17 07:01N 49°41' W 004°34'714.3
2018-Jun-17 06:32N 49°40' W 004°45'5913.4
2018-Jun-17 02:09N 49°38' W 006°15'413.2
2018-Jun-17 01:48N 49°38' W 006°22'  
Track history (hours):
 
Tides and Currents Weather Stations Pressure Air Temp Water Temp Dewpoint Dewpoint Depression Visibility Wind Speed Wind Dir Waves Ship Positions

Navigator Ceto

Last reported at 2018-Jun-25 01:12 UTC. Time now 2018-Jun-25 03:50 UTC.
Position N 51°17' E 004°14'.

Length 160 m; draft 6.8 m.

Type: Tanker. MMSI: 636016660.

Date/timePositionNaut miles runAvg speedWind from/ knotsBaromVisibWave heightAir tempDewpointWater temp
2018-Jun-25 01:12N 51°17' E 004°14'0 0.0
2018-Jun-25 00:57N 51°17' E 004°14'0 0.0
2018-Jun-24 23:03N 51°17' E 004°14'0 0.0
2018-Jun-24 21:03N 51°17' E 004°14'0 0.0
2018-Jun-24 20:54N 51°17' E 004°14'0 0.0
2018-Jun-24 20:27N 51°17' E 004°14'0 0.2
2018-Jun-24 20:00N 51°17' E 004°14'1 1.4
2018-Jun-24 19:30N 51°17' E 004°15'0 0.0
2018-Jun-24 19:00N 51°17' E 004°15'1 2.4
2018-Jun-24 18:30N 51°18' E 004°16'3 6.4
2018-Jun-24 18:00N 51°21' E 004°15'4 7.8
2018-Jun-24 17:30N 51°23' E 004°10'5 9.6
2018-Jun-24 17:00N 51°23' E 004°02'3 5.8
2018-Jun-24 16:30N 51°24' E 003°58'510.2
2018-Jun-24 16:00N 51°21' E 003°52'510.6
2018-Jun-24 15:30N 51°23' E 003°44'5 9.8
2018-Jun-24 15:00N 51°26' E 003°38'4 8.1
2018-Jun-24 14:30N 51°25' E 003°32'4 8.7
2018-Jun-24 14:00N 51°25' E 003°25'4 8.4
2018-Jun-24 13:30N 51°24' E 003°19'612.0
2018-Jun-24 13:00N 51°24' E 003°09'612.3
2018-Jun-24 12:30N 51°23' E 002°59'612.6
2018-Jun-24 12:00N 51°22' E 002°49'510.1
2018-Jun-24 11:30N 51°24' E 002°42'3 7.0
2018-Jun-24 11:00N 51°27' E 002°43'1 2.6
2018-Jun-24 10:30N 51°27' E 002°41'0 0.0
2018-Jun-24 09:59N 51°27' E 002°41'0 0.1
2018-Jun-24 09:20N 51°27' E 002°41'0 0.2
2018-Jun-24 08:59N 51°27' E 002°41'0 0.2
2018-Jun-24 08:29N 51°27' E 002°41'0 0.0
2018-Jun-24 07:56N 51°27' E 002°41'0 0.0
2018-Jun-24 07:29N 51°27' E 002°41'0 0.0
2018-Jun-24 06:59N 51°27' E 002°41'0 0.0
2018-Jun-24 06:26N 51°27' E 002°41'0 0.0
2018-Jun-24 05:50N 51°27' E 002°41'0 0.0
2018-Jun-24 05:23N 51°27' E 002°41'0 0.0
2018-Jun-24 04:56N 51°27' E 002°41'0 0.0
2018-Jun-24 04:29N 51°27' E 002°41'0 0.0
2018-Jun-24 03:59N 51°27' E 002°41'0 0.0
2018-Jun-24 03:29N 51°27' E 002°41'0 0.0
2018-Jun-24 02:53N 51°27' E 002°41'0 0.0
2018-Jun-24 02:29N 51°27' E 002°41'0 0.1
2018-Jun-24 01:59N 51°27' E 002°41'0 0.2
2018-Jun-24 01:29N 51°27' E 002°41'0 0.0
2018-Jun-24 00:59N 51°27' E 002°41'0 0.0
2018-Jun-24 00:29N 51°27' E 002°41'0 0.0
2018-Jun-23 23:59N 51°27' E 002°41'0 0.0
2018-Jun-23 23:29N 51°27' E 002°41'0 0.0
2018-Jun-23 22:56N 51°27' E 002°41'0 0.0
2018-Jun-23 22:29N 51°27' E 002°41'0 0.0
2018-Jun-23 21:59N 51°27' E 002°41'0 0.0
2018-Jun-23 21:29N 51°27' E 002°41'0 0.0
2018-Jun-23 20:59N 51°27' E 002°41'0 0.1
2018-Jun-23 20:29N 51°27' E 002°41'0 0.2
2018-Jun-23 19:50N 51°27' E 002°41'0 0.1
2018-Jun-23 19:29N 51°27' E 002°41'0 0.0
2018-Jun-23 18:59N 51°27' E 002°41'0 0.1
2018-Jun-23 18:29N 51°27' E 002°41'0 0.0
2018-Jun-23 17:59N 51°27' E 002°41'0 0.0
2018-Jun-23 17:29N 51°27' E 002°41'0 0.0
2018-Jun-23 16:59N 51°27' E 002°41'0 0.0
2018-Jun-23 16:26N 51°27' E 002°41'0 0.1
2018-Jun-23 15:59N 51°27' E 002°41'0 0.0
2018-Jun-23 15:29N 51°27' E 002°41'0 0.1
2018-Jun-23 14:56N 51°27' E 002°41'0 0.1
2018-Jun-23 14:29N 51°27' E 002°41'0 0.1
2018-Jun-23 13:59N 51°27' E 002°41'0 0.0
2018-Jun-23 13:29N 51°27' E 002°41'0 0.1
2018-Jun-23 12:56N 51°27' E 002°41'0 0.0
2018-Jun-23 12:29N 51°27' E 002°41'0 0.0
2018-Jun-23 11:53N 51°27' E 002°41'0 0.0
2018-Jun-23 11:29N 51°27' E 002°41'0 0.0
2018-Jun-23 10:59N 51°27' E 002°41'0 0.0
2018-Jun-23 10:29N 51°27' E 002°41'0 0.0
2018-Jun-23 09:56N 51°27' E 002°41'0 0.0
2018-Jun-23 09:29N 51°27' E 002°41'0 0.0
2018-Jun-23 08:59N 51°27' E 002°41'0 0.0
2018-Jun-23 08:26N 51°27' E 002°41'0 0.1
2018-Jun-23 07:59N 51°27' E 002°41'0 0.1
2018-Jun-23 07:29N 51°27' E 002°41'0 0.1
2018-Jun-23 06:59N 51°27' E 002°41'0 0.1
2018-Jun-23 06:29N 51°27' E 002°41'0 0.0
2018-Jun-23 05:56N 51°27' E 002°41'0 0.0
2018-Jun-23 05:29N 51°27' E 002°41'0 0.0
2018-Jun-23 04:56N 51°27' E 002°41'0 0.0
2018-Jun-23 04:29N 51°27' E 002°41'0 0.0
2018-Jun-23 03:59N 51°27' E 002°41'0 0.0
2018-Jun-23 03:29N 51°27' E 002°41'0 0.0
2018-Jun-23 02:59N 51°27' E 002°41'0 0.0
2018-Jun-23 02:26N 51°27' E 002°41'0 0.1
2018-Jun-23 01:50N 51°27' E 002°41'0 0.0
2018-Jun-23 01:26N 51°27' E 002°41'0 0.0
2018-Jun-23 00:32N 51°27' E 002°41'0 0.2
2018-Jun-23 00:29N 51°27' E 002°41'0 0.1
2018-Jun-22 23:53N 51°27' E 002°41'0 0.1
2018-Jun-22 23:17N 51°27' E 002°41'0 0.0
2018-Jun-22 22:59N 51°27' E 002°41'0 0.0
2018-Jun-22 22:20N 51°27' E 002°41'0 0.0
2018-Jun-22 21:53N 51°27' E 002°41'0 0.0
2018-Jun-22 21:29N 51°27' E 002°41'0 0.1
2018-Jun-22 20:59N 51°27' E 002°41'0 0.1
2018-Jun-22 20:20N 51°27' E 002°41'0 0.1
2018-Jun-22 19:38N 51°27' E 002°41'0 0.1
2018-Jun-22 19:14N 51°27' E 002°41'0 0.1
2018-Jun-22 18:56N 51°27' E 002°41'0 0.0
2018-Jun-22 18:17N 51°27' E 002°41'0 0.1
2018-Jun-22 17:53N 51°27' E 002°41'0 0.0
2018-Jun-22 16:50N 51°27' E 002°41'0 0.0
2018-Jun-22 16:20N 51°27' E 002°41'0 0.0
2018-Jun-22 15:44N 51°27' E 002°41'0 0.1
2018-Jun-22 15:29N 51°27' E 002°41'0 0.0
2018-Jun-22 14:56N 51°27' E 002°41'0 0.0
2018-Jun-22 14:17N 51°27' E 002°41'0 0.1
2018-Jun-22 13:56N 51°27' E 002°41'0 0.0
2018-Jun-22 13:29N 51°27' E 002°41'0 0.0
2018-Jun-22 12:59N 51°27' E 002°41'0 0.0
2018-Jun-22 12:29N 51°27' E 002°41'0 0.0
2018-Jun-22 11:53N 51°27' E 002°41'0 0.0
2018-Jun-22 11:20N 51°27' E 002°41'0 0.1
2018-Jun-22 10:59N 51°27' E 002°41'0 0.0
2018-Jun-22 10:29N 51°27' E 002°41'0 0.1
2018-Jun-22 09:59N 51°27' E 002°41'0 0.0
2018-Jun-22 09:26N 51°27' E 002°41'0 0.0
2018-Jun-22 08:56N 51°27' E 002°41'0 0.0
2018-Jun-22 08:26N 51°27' E 002°41'0 0.0
2018-Jun-22 07:59N 51°27' E 002°41'0 0.0
2018-Jun-22 07:26N 51°27' E 002°41'0 0.0
2018-Jun-22 06:59N 51°27' E 002°41'0 0.0
2018-Jun-22 06:26N 51°27' E 002°41'0 0.0
2018-Jun-22 05:50N 51°27' E 002°41'0 0.0
2018-Jun-22 05:29N 51°27' E 002°41'0 0.1
2018-Jun-22 04:56N 51°27' E 002°41'0 0.1
2018-Jun-22 04:29N 51°27' E 002°41'0 0.0
2018-Jun-22 03:56N 51°27' E 002°41'0 0.0
2018-Jun-22 03:23N 51°27' E 002°41'0 0.0
2018-Jun-22 02:59N 51°27' E 002°41'0 0.1
2018-Jun-22 02:29N 51°27' E 002°41'0 0.1
2018-Jun-22 01:53N 51°27' E 002°41'0 0.1
2018-Jun-22 01:29N 51°27' E 002°41'0 0.0
2018-Jun-22 00:59N 51°27' E 002°41'0 0.0
2018-Jun-22 00:23N 51°27' E 002°41'0 0.0
2018-Jun-21 23:59N 51°27' E 002°41'0 0.0
2018-Jun-21 23:29N 51°27' E 002°41'0 0.0
2018-Jun-21 22:53N 51°27' E 002°41'0 0.1
2018-Jun-21 22:26N 51°27' E 002°41'0 0.1
2018-Jun-21 21:53N 51°27' E 002°41'0 0.1
2018-Jun-21 21:29N 51°27' E 002°41'0 0.1
2018-Jun-21 20:59N 51°27' E 002°41'0 0.1
2018-Jun-21 20:23N 51°27' E 002°41'0 0.0
2018-Jun-21 19:56N 51°27' E 002°41'0 0.0
2018-Jun-21 19:29N 51°27' E 002°41'0 0.0
2018-Jun-21 18:59N 51°27' E 002°41'0 0.1
2018-Jun-21 18:29N 51°27' E 002°41'0 0.1
2018-Jun-21 17:59N 51°27' E 002°41'0 0.0
2018-Jun-21 17:29N 51°27' E 002°41'0 0.0
2018-Jun-21 16:53N 51°27' E 002°41'0 0.0
2018-Jun-21 16:29N 51°27' E 002°41'0 0.0
2018-Jun-21 15:53N 51°27' E 002°41'0 0.0
2018-Jun-21 15:29N 51°27' E 002°41'0 0.0
2018-Jun-21 14:59N 51°27' E 002°41'0 0.0
2018-Jun-21 14:29N 51°27' E 002°41'0 0.0
2018-Jun-21 13:59N 51°27' E 002°41'0 0.0
2018-Jun-21 13:29N 51°27' E 002°41'0 0.0
2018-Jun-21 12:53N 51°27' E 002°41'0 0.0
2018-Jun-21 12:29N 51°27' E 002°41'0 0.0
2018-Jun-21 11:59N 51°27' E 002°41'0 0.1
2018-Jun-21 11:29N 51°27' E 002°41'0 0.1
2018-Jun-21 10:56N 51°27' E 002°41'0 0.1
2018-Jun-21 10:29N 51°27' E 002°41'0 0.1
2018-Jun-21 09:56N 51°27' E 002°41'0 0.1
2018-Jun-21 09:29N 51°27' E 002°41'0 0.0
2018-Jun-21 08:47N 51°27' E 002°41'0 0.1
2018-Jun-21 08:29N 51°27' E 002°41'0 0.0
2018-Jun-21 07:59N 51°27' E 002°41'0 0.0
2018-Jun-21 07:29N 51°27' E 002°41'0 0.0
2018-Jun-21 06:59N 51°27' E 002°41'0 0.0
2018-Jun-21 06:23N 51°27' E 002°41'0 0.0
2018-Jun-21 05:59N 51°27' E 002°41'0 0.0
2018-Jun-21 05:26N 51°27' E 002°41'0 0.1
2018-Jun-21 04:59N 51°27' E 002°41'0 0.0
2018-Jun-21 04:29N 51°27' E 002°41'0 0.0
2018-Jun-21 03:47N 51°27' E 002°41'0 0.0
2018-Jun-21 03:29N 51°27' E 002°41'0 0.1
2018-Jun-21 02:59N 51°27' E 002°41'0 0.0
2018-Jun-21 02:29N 51°27' E 002°41'0 0.0
2018-Jun-21 01:59N 51°27' E 002°41'0 0.0
2018-Jun-21 01:26N 51°27' E 002°41'0 0.1
2018-Jun-21 00:59N 51°27' E 002°41'0 0.2
2018-Jun-21 00:29N 51°27' E 002°41'0 0.1
2018-Jun-20 23:53N 51°27' E 002°41'0 0.1
2018-Jun-20 23:30N 51°27' E 002°41'2 4.3
2018-Jun-20 22:58N 51°27' E 002°44'3 5.5
2018-Jun-20 22:27N 51°24' E 002°45'612.2
2018-Jun-20 21:58N 51°25' E 002°54'714.4
2018-Jun-20 21:30N 51°24' E 003°05'714.7
2018-Jun-20 21:00N 51°25' E 003°17'714.8
2018-Jun-20 20:30N 51°25' E 003°29'510.3
2018-Jun-20 20:00N 51°26' E 003°37'510.0
2018-Jun-20 19:30N 51°23' E 003°43'612.6
2018-Jun-20 19:00N 51°21' E 003°53'510.8
2018-Jun-20 18:30N 51°25' E 003°58'3 6.9
2018-Jun-20 18:00N 51°23' E 004°02'510.8
2018-Jun-20 17:31N 51°24' E 004°11'510.3
2018-Jun-20 17:00N 51°20' E 004°16'4 8.1
2018-Jun-20 16:30N 51°16' E 004°18'1 2.1
2018-Jun-20 16:01N 51°16' E 004°17'0 0.0
2018-Jun-20 15:30N 51°16' E 004°17'1 1.6
2018-Jun-20 15:01N 51°16' E 004°15'0 0.6
2018-Jun-20 14:28N 51°16' E 004°15'0 0.0
2018-Jun-20 13:55N 51°16' E 004°15'0 0.0
2018-Jun-20 13:16N 51°16' E 004°15'0 0.0
2018-Jun-20 12:58N 51°16' E 004°15'0 0.0
2018-Jun-20 12:25N 51°16' E 004°15'0 0.0
2018-Jun-20 11:55N 51°16' E 004°15'0 0.0
2018-Jun-20 11:28N 51°16' E 004°15'0 0.0
2018-Jun-20 10:55N 51°16' E 004°15'0 0.0
2018-Jun-20 10:25N 51°16' E 004°15'0 0.0
2018-Jun-20 09:58N 51°16' E 004°15'0 0.0
2018-Jun-20 09:25N 51°16' E 004°15'0 0.0
2018-Jun-20 08:52N 51°16' E 004°15'0 0.0
2018-Jun-20 08:28N 51°16' E 004°15'0 0.0
2018-Jun-20 07:58N 51°16' E 004°15'0 0.0
2018-Jun-20 07:28N 51°16' E 004°15'0 0.0
2018-Jun-20 06:55N 51°16' E 004°15'0 0.0
2018-Jun-20 06:16N 51°16' E 004°15'0 0.0
2018-Jun-20 05:52N 51°16' E 004°15'0 0.0
2018-Jun-20 05:25N 51°16' E 004°15'0 0.0
2018-Jun-20 04:46N 51°16' E 004°15'0 0.0
2018-Jun-20 04:22N 51°16' E 004°15'0 0.0
2018-Jun-20 03:55N 51°16' E 004°15'0 0.0
2018-Jun-20 03:28N 51°16' E 004°15'0 0.0
2018-Jun-20 02:58N 51°16' E 004°15'0 0.0
2018-Jun-20 02:25N 51°16' E 004°15'0 0.0
2018-Jun-20 01:52N 51°16' E 004°15'0 0.0
2018-Jun-20 01:16N 51°16' E 004°15'0 0.0
2018-Jun-20 00:58N 51°16' E 004°15'0 0.0
2018-Jun-20 00:10N 51°16' E 004°15'0 0.0
2018-Jun-19 23:58N 51°16' E 004°15'0 0.0
2018-Jun-19 23:07N 51°16' E 004°15'0 0.0
2018-Jun-19 22:49N 51°16' E 004°15'0 0.0
2018-Jun-19 22:25N 51°16' E 004°15'0 0.0
2018-Jun-19 21:58N 51°16' E 004°15'0 0.0
2018-Jun-19 21:19N 51°16' E 004°15'0 0.0
2018-Jun-19 20:58N 51°16' E 004°15'0 0.0
2018-Jun-19 20:19N 51°16' E 004°15'0 0.0
2018-Jun-19 19:52N 51°16' E 004°15'0 0.0
2018-Jun-19 19:28N 51°16' E 004°15'0 0.0
2018-Jun-19 18:58N 51°16' E 004°15'0 0.0
2018-Jun-19 18:28N 51°16' E 004°15'0 0.0
2018-Jun-19 17:55N 51°16' E 004°15'0 0.0
2018-Jun-19 17:16N 51°16' E 004°15'0 0.0
2018-Jun-19 16:49N 51°16' E 004°15'0 0.0
2018-Jun-19 16:25N 51°16' E 004°15'0 0.0
2018-Jun-19 15:49N 51°16' E 004°15'0 0.0
2018-Jun-19 15:28N 51°16' E 004°15'0 0.0
2018-Jun-19 14:49N 51°16' E 004°15'0 0.0
2018-Jun-19 14:28N 51°16' E 004°15'0 0.0
2018-Jun-19 13:55N 51°16' E 004°15'0 0.0
2018-Jun-19 13:25N 51°16' E 004°15'0 0.0
2018-Jun-19 12:55N 51°16' E 004°15'0 0.0
2018-Jun-19 12:22N 51°16' E 004°15'0 0.0
2018-Jun-19 11:58N 51°16' E 004°15'0 0.0
2018-Jun-19 11:22N 51°16' E 004°15'0 0.0
2018-Jun-19 10:49N 51°16' E 004°15'0 0.0
2018-Jun-19 10:28N 51°16' E 004°15'0 0.0
2018-Jun-19 09:55N 51°16' E 004°15'0 0.0
2018-Jun-19 09:19N 51°16' E 004°15'0 0.0
2018-Jun-19 08:58N 51°16' E 004°15'0 0.0
2018-Jun-19 08:25N 51°16' E 004°15'0 0.0
2018-Jun-19 07:52N 51°16' E 004°15'0 0.0
2018-Jun-19 07:28N 51°16' E 004°15'0 0.0
2018-Jun-19 06:58N 51°16' E 004°15'0 0.0
2018-Jun-19 06:19N 51°16' E 004°15'0 0.0
2018-Jun-19 05:52N 51°16' E 004°15'0 0.0
2018-Jun-19 05:25N 51°16' E 004°15'0 0.0
2018-Jun-19 04:58N 51°16' E 004°15'0 0.0
2018-Jun-19 04:28N 51°16' E 004°15'0 0.0
2018-Jun-19 03:52N 51°16' E 004°15'0 0.0
2018-Jun-19 03:28N 51°16' E 004°15'0 0.0
2018-Jun-19 02:55N 51°16' E 004°15'0 0.0
2018-Jun-19 02:25N 51°16' E 004°15'0 0.0
2018-Jun-19 01:58N 51°16' E 004°15'0 0.0
2018-Jun-19 01:28N 51°16' E 004°15'0 0.0
2018-Jun-19 00:49N 51°16' E 004°15'0 0.0
2018-Jun-19 00:28N 51°16' E 004°15'0 0.0
2018-Jun-18 23:58N 51°16' E 004°15'0 0.0
2018-Jun-18 23:28N 51°16' E 004°15'0 0.0
2018-Jun-18 22:52N 51°16' E 004°15'0 0.0
2018-Jun-18 22:28N 51°16' E 004°15'0 0.0
2018-Jun-18 21:58N 51°16' E 004°15'0 0.0
2018-Jun-18 21:22N 51°16' E 004°15'0 0.0
2018-Jun-18 20:58N 51°16' E 004°15'0 0.0
2018-Jun-18 20:28N 51°16' E 004°15'0 0.0
2018-Jun-18 19:58N 51°16' E 004°15'0 0.0
2018-Jun-18 19:28N 51°16' E 004°15'0 0.0
2018-Jun-18 18:52N 51°16' E 004°15'0 0.0
2018-Jun-18 18:04N 51°16' E 004°15'0 0.0
2018-Jun-18 17:58N 51°16' E 004°15'0 0.0
2018-Jun-18 17:28N 51°16' E 004°15'0 0.0
2018-Jun-18 16:55N 51°16' E 004°15'0 0.0
2018-Jun-18 16:25N 51°16' E 004°15'0 0.0
2018-Jun-18 15:52N 51°16' E 004°15'0 0.0
2018-Jun-18 15:13N 51°16' E 004°15'0 0.0
2018-Jun-18 14:58N 51°16' E 004°15'0 0.0
2018-Jun-18 14:29N 51°16' E 004°15'0 0.6
2018-Jun-18 14:00N 51°16' E 004°15'1 1.7
2018-Jun-18 13:30N 51°17' E 004°15'0 0.0
2018-Jun-18 13:00N 51°17' E 004°15'0 0.5
2018-Jun-18 12:30N 51°17' E 004°15'2 4.2
2018-Jun-18 12:00N 51°19' E 004°16'5 9.6
2018-Jun-18 11:30N 51°23' E 004°13'510.9
2018-Jun-18 11:00N 51°22' E 004°04'5 9.8
2018-Jun-18 10:30N 51°26' E 003°59'611.7
2018-Jun-18 10:00N 51°21' E 003°53'611.4
2018-Jun-18 09:30N 51°22' E 003°44'510.4
2018-Jun-18 09:00N 51°26' E 003°39'4 7.0
2018-Jun-18 08:30N 51°25' E 003°33'510.5
2018-Jun-18 08:00N 51°24' E 003°25'612.7
2018-Jun-18 07:30N 51°24' E 003°15'714.0
2018-Jun-18 07:00N 51°24' E 003°03'714.8
2018-Jun-18 06:30N 51°22' E 002°52'612.7
2018-Jun-18 06:00N 51°22' E 002°42'610.6
2018-Jun-18 05:28N 51°22' E 002°33'611.4
2018-Jun-18 04:59N 51°21' E 002°24'613.7
2018-Jun-18 04:31N 51°17' E 002°16'713.6
2018-Jun-18 04:00N 51°14' E 002°06'611.7
2018-Jun-18 03:30N 51°11' E 001°58'611.5
2018-Jun-18 03:00N 51°08' E 001°50'611.8
2018-Jun-18 02:30N 51°05' E 001°43'713.8
2018-Jun-18 02:00N 50°60' E 001°35'714.6
2018-Jun-18 01:30N 50°53' E 001°29'814.9
2018-Jun-18 00:57N 50°45' E 001°25'6114.3
2018-Jun-17 20:43N 50°20' W 000°01'614.8
2018-Jun-17 20:21N 50°18' W 000°09'514.1
2018-Jun-17 20:01N 50°17' W 000°17'713.6
2018-Jun-17 19:29N 50°14' W 000°27'9412.3
2018-Jun-17 11:52N 49°50' W 002°48'2414.2
2018-Jun-17 10:09N 49°47' W 003°26'1414.3
2018-Jun-17 09:11N 49°46' W 003°47'3114.2
2018-Jun-17 07:01N 49°41' W 004°34'714.3
2018-Jun-17 06:32N 49°40' W 004°45'5913.4
2018-Jun-17 02:09N 49°38' W 006°15'413.2
2018-Jun-17 01:48N 49°38' W 006°22'  

Dump ship's entire track history